sensor_id;sensor_type;location;lat;lon;timestamp;P1;durP1;ratioP1;P2;durP2;ratioP2
2972;SDS011;1496;51.404;7.232;2022-08-21T00:00:15;14.93;;;5.37;;
2972;SDS011;1496;51.404;7.232;2022-08-21T00:02:56;9.20;;;5.10;;
2972;SDS011;1496;51.404;7.232;2022-08-21T00:05:27;9.63;;;5.40;;
2972;SDS011;1496;51.404;7.232;2022-08-21T00:07:54;7.37;;;5.00;;
2972;SDS011;1496;51.404;7.232;2022-08-21T00:10:20;9.30;;;5.10;;
2972;SDS011;1496;51.404;7.232;2022-08-21T00:12:47;12.77;;;4.87;;
2972;SDS011;1496;51.404;7.232;2022-08-21T00:15:15;12.63;;;5.80;;
2972;SDS011;1496;51.404;7.232;2022-08-21T00:17:44;8.67;;;5.13;;
2972;SDS011;1496;51.404;7.232;2022-08-21T00:20:10;7.50;;;4.23;;
2972;SDS011;1496;51.404;7.232;2022-08-21T00:22:38;10.70;;;5.00;;
2972;SDS011;1496;51.404;7.232;2022-08-21T00:25:04;12.20;;;5.10;;
2972;SDS011;1496;51.404;7.232;2022-08-21T00:27:31;8.50;;;4.57;;
2972;SDS011;1496;51.404;7.232;2022-08-21T00:29:58;10.00;;;5.20;;
2972;SDS011;1496;51.404;7.232;2022-08-21T00:32:24;9.70;;;5.87;;
2972;SDS011;1496;51.404;7.232;2022-08-21T00:34:52;8.70;;;4.70;;
2972;SDS011;1496;51.404;7.232;2022-08-21T00:37:18;11.50;;;5.10;;
2972;SDS011;1496;51.404;7.232;2022-08-21T00:39:45;8.53;;;5.23;;
2972;SDS011;1496;51.404;7.232;2022-08-21T00:42:12;11.50;;;5.00;;
2972;SDS011;1496;51.404;7.232;2022-08-21T00:44:43;9.80;;;4.70;;
2972;SDS011;1496;51.404;7.232;2022-08-21T00:47:11;5.07;;;4.07;;
2972;SDS011;1496;51.404;7.232;2022-08-21T00:49:37;11.40;;;5.70;;
2972;SDS011;1496;51.404;7.232;2022-08-21T00:52:05;9.93;;;4.87;;
2972;SDS011;1496;51.404;7.232;2022-08-21T00:54:36;10.60;;;4.83;;
2972;SDS011;1496;51.404;7.232;2022-08-21T00:57:26;8.63;;;4.30;;
2972;SDS011;1496;51.404;7.232;2022-08-21T00:59:57;9.03;;;4.70;;
2972;SDS011;1496;51.404;7.232;2022-08-21T01:02:25;11.10;;;6.00;;
2972;SDS011;1496;51.404;7.232;2022-08-21T01:04:51;11.87;;;4.50;;
2972;SDS011;1496;51.404;7.232;2022-08-21T01:07:17;8.47;;;4.13;;
2972;SDS011;1496;51.404;7.232;2022-08-21T01:09:44;7.60;;;4.00;;
2972;SDS011;1496;51.404;7.232;2022-08-21T01:12:12;9.57;;;4.37;;
2972;SDS011;1496;51.404;7.232;2022-08-21T01:14:38;9.60;;;3.77;;
2972;SDS011;1496;51.404;7.232;2022-08-21T01:17:08;8.90;;;4.23;;
2972;SDS011;1496;51.404;7.232;2022-08-21T01:19:35;10.37;;;4.47;;
2972;SDS011;1496;51.404;7.232;2022-08-21T01:22:01;7.23;;;4.27;;
2972;SDS011;1496;51.404;7.232;2022-08-21T01:24:27;8.43;;;4.10;;
2972;SDS011;1496;51.404;7.232;2022-08-21T01:26:53;11.47;;;4.40;;
2972;SDS011;1496;51.404;7.232;2022-08-21T01:29:26;8.37;;;4.30;;
2972;SDS011;1496;51.404;7.232;2022-08-21T01:32:08;9.03;;;4.40;;
2972;SDS011;1496;51.404;7.232;2022-08-21T01:34:38;4.80;;;3.70;;
2972;SDS011;1496;51.404;7.232;2022-08-21T01:37:06;8.37;;;4.27;;
2972;SDS011;1496;51.404;7.232;2022-08-21T01:39:33;7.80;;;4.10;;
2972;SDS011;1496;51.404;7.232;2022-08-21T01:41:59;9.67;;;4.80;;
2972;SDS011;1496;51.404;7.232;2022-08-21T01:44:26;10.33;;;4.07;;
2972;SDS011;1496;51.404;7.232;2022-08-21T01:46:54;6.67;;;3.90;;
2972;SDS011;1496;51.404;7.232;2022-08-21T01:49:20;8.97;;;4.60;;
2972;SDS011;1496;51.404;7.232;2022-08-21T01:51:47;6.03;;;4.00;;
2972;SDS011;1496;51.404;7.232;2022-08-21T01:54:13;8.90;;;4.00;;
2972;SDS011;1496;51.404;7.232;2022-08-21T01:56:40;13.33;;;4.87;;
2972;SDS011;1496;51.404;7.232;2022-08-21T01:59:09;8.37;;;3.87;;
2972;SDS011;1496;51.404;7.232;2022-08-21T02:01:36;7.87;;;4.93;;
2972;SDS011;1496;51.404;7.232;2022-08-21T02:04:05;11.17;;;4.53;;
2972;SDS011;1496;51.404;7.232;2022-08-21T02:06:35;8.80;;;4.00;;
2972;SDS011;1496;51.404;7.232;2022-08-21T02:09:05;12.80;;;5.00;;
2972;SDS011;1496;51.404;7.232;2022-08-21T02:11:33;8.03;;;4.00;;
2972;SDS011;1496;51.404;7.232;2022-08-21T02:14:01;5.10;;;4.70;;
2972;SDS011;1496;51.404;7.232;2022-08-21T02:16:27;7.93;;;4.73;;
2972;SDS011;1496;51.404;7.232;2022-08-21T02:18:53;12.67;;;5.03;;
2972;SDS011;1496;51.404;7.232;2022-08-21T02:21:19;7.40;;;4.50;;
2972;SDS011;1496;51.404;7.232;2022-08-21T02:23:45;6.43;;;4.50;;
2972;SDS011;1496;51.404;7.232;2022-08-21T02:26:11;14.13;;;4.80;;
2972;SDS011;1496;51.404;7.232;2022-08-21T02:28:37;6.73;;;4.93;;
2972;SDS011;1496;51.404;7.232;2022-08-21T02:31:04;9.30;;;4.70;;
2972;SDS011;1496;51.404;7.232;2022-08-21T02:33:30;9.53;;;4.80;;
2972;SDS011;1496;51.404;7.232;2022-08-21T02:35:59;11.30;;;4.33;;
2972;SDS011;1496;51.404;7.232;2022-08-21T02:38:27;13.93;;;5.60;;
2972;SDS011;1496;51.404;7.232;2022-08-21T02:41:03;11.07;;;4.80;;
2972;SDS011;1496;51.404;7.232;2022-08-21T02:43:33;7.03;;;5.17;;
2972;SDS011;1496;51.404;7.232;2022-08-21T02:46:01;11.23;;;5.07;;
2972;SDS011;1496;51.404;7.232;2022-08-21T02:48:29;10.10;;;5.53;;
2972;SDS011;1496;51.404;7.232;2022-08-21T02:50:58;9.80;;;5.07;;
2972;SDS011;1496;51.404;7.232;2022-08-21T02:53:26;10.80;;;5.27;;
2972;SDS011;1496;51.404;7.232;2022-08-21T02:55:53;11.50;;;5.10;;
2972;SDS011;1496;51.404;7.232;2022-08-21T02:58:24;8.97;;;4.83;;
2972;SDS011;1496;51.404;7.232;2022-08-21T03:00:51;8.10;;;5.07;;
2972;SDS011;1496;51.404;7.232;2022-08-21T03:03:17;8.73;;;4.90;;
2972;SDS011;1496;51.404;7.232;2022-08-21T03:05:46;8.73;;;5.20;;
2972;SDS011;1496;51.404;7.232;2022-08-21T03:08:14;12.00;;;5.73;;
2972;SDS011;1496;51.404;7.232;2022-08-21T03:10:44;9.10;;;4.30;;
2972;SDS011;1496;51.404;7.232;2022-08-21T03:13:15;10.00;;;4.70;;
2972;SDS011;1496;51.404;7.232;2022-08-21T03:15:43;10.47;;;4.47;;
2972;SDS011;1496;51.404;7.232;2022-08-21T03:18:10;11.17;;;4.97;;
2972;SDS011;1496;51.404;7.232;2022-08-21T03:20:37;15.03;;;5.33;;
2972;SDS011;1496;51.404;7.232;2022-08-21T03:23:05;8.70;;;3.93;;
2972;SDS011;1496;51.404;7.232;2022-08-21T03:25:37;6.50;;;4.53;;
2972;SDS011;1496;51.404;7.232;2022-08-21T03:28:04;13.07;;;5.87;;
2972;SDS011;1496;51.404;7.232;2022-08-21T03:30:32;9.63;;;4.73;;
2972;SDS011;1496;51.404;7.232;2022-08-21T03:32:58;7.60;;;5.60;;
2972;SDS011;1496;51.404;7.232;2022-08-21T03:35:26;8.33;;;5.07;;
2972;SDS011;1496;51.404;7.232;2022-08-21T03:37:53;10.23;;;5.40;;
2972;SDS011;1496;51.404;7.232;2022-08-21T03:40:19;7.63;;;5.37;;
2972;SDS011;1496;51.404;7.232;2022-08-21T03:42:47;11.10;;;6.40;;
2972;SDS011;1496;51.404;7.232;2022-08-21T03:45:17;9.23;;;5.60;;
2972;SDS011;1496;51.404;7.232;2022-08-21T03:47:50;8.77;;;5.20;;
2972;SDS011;1496;51.404;7.232;2022-08-21T03:50:21;11.37;;;5.80;;
2972;SDS011;1496;51.404;7.232;2022-08-21T03:52:48;10.87;;;5.63;;
2972;SDS011;1496;51.404;7.232;2022-08-21T03:55:14;7.13;;;5.87;;
2972;SDS011;1496;51.404;7.232;2022-08-21T03:57:39;11.57;;;5.60;;
2972;SDS011;1496;51.404;7.232;2022-08-21T04:00:06;16.63;;;6.43;;
2972;SDS011;1496;51.404;7.232;2022-08-21T04:02:35;5.70;;;4.43;;
2972;SDS011;1496;51.404;7.232;2022-08-21T04:05:00;10.30;;;5.57;;
2972;SDS011;1496;51.404;7.232;2022-08-21T04:07:26;6.20;;;4.90;;
2972;SDS011;1496;51.404;7.232;2022-08-21T04:09:52;12.60;;;5.60;;
2972;SDS011;1496;51.404;7.232;2022-08-21T04:12:17;9.70;;;5.57;;
2972;SDS011;1496;51.404;7.232;2022-08-21T04:14:44;8.67;;;5.90;;
2972;SDS011;1496;51.404;7.232;2022-08-21T04:17:09;9.37;;;5.67;;
2972;SDS011;1496;51.404;7.232;2022-08-21T04:19:35;9.93;;;4.90;;
2972;SDS011;1496;51.404;7.232;2022-08-21T04:22:01;9.17;;;6.33;;
2972;SDS011;1496;51.404;7.232;2022-08-21T04:24:26;10.73;;;6.40;;
2972;SDS011;1496;51.404;7.232;2022-08-21T04:26:52;10.30;;;5.83;;
2972;SDS011;1496;51.404;7.232;2022-08-21T04:29:17;10.03;;;6.80;;
2972;SDS011;1496;51.404;7.232;2022-08-21T04:31:44;8.80;;;5.90;;
2972;SDS011;1496;51.404;7.232;2022-08-21T04:34:10;7.80;;;5.70;;
2972;SDS011;1496;51.404;7.232;2022-08-21T04:36:36;7.87;;;6.30;;
2972;SDS011;1496;51.404;7.232;2022-08-21T04:39:02;11.80;;;7.20;;
2972;SDS011;1496;51.404;7.232;2022-08-21T04:41:28;11.13;;;6.17;;
2972;SDS011;1496;51.404;7.232;2022-08-21T04:43:54;11.40;;;6.60;;
2972;SDS011;1496;51.404;7.232;2022-08-21T04:46:20;11.77;;;6.03;;
2972;SDS011;1496;51.404;7.232;2022-08-21T04:48:47;7.00;;;5.30;;
2972;SDS011;1496;51.404;7.232;2022-08-21T04:53:49;7.60;;;5.17;;
2972;SDS011;1496;51.404;7.232;2022-08-21T04:56:20;8.87;;;5.27;;
2972;SDS011;1496;51.404;7.232;2022-08-21T04:58:48;8.00;;;6.17;;
2972;SDS011;1496;51.404;7.232;2022-08-21T05:01:17;8.10;;;6.10;;
2972;SDS011;1496;51.404;7.232;2022-08-21T05:03:46;14.83;;;6.47;;
2972;SDS011;1496;51.404;7.232;2022-08-21T05:06:20;9.40;;;6.80;;
2972;SDS011;1496;51.404;7.232;2022-08-21T05:08:47;8.83;;;5.80;;
2972;SDS011;1496;51.404;7.232;2022-08-21T05:11:16;10.70;;;4.83;;
2972;SDS011;1496;51.404;7.232;2022-08-21T05:13:41;11.43;;;5.60;;
2972;SDS011;1496;51.404;7.232;2022-08-21T05:16:07;7.90;;;6.07;;
2972;SDS011;1496;51.404;7.232;2022-08-21T05:18:33;8.30;;;5.47;;
2972;SDS011;1496;51.404;7.232;2022-08-21T05:20:59;9.10;;;5.20;;
2972;SDS011;1496;51.404;7.232;2022-08-21T05:23:25;7.10;;;6.13;;
2972;SDS011;1496;51.404;7.232;2022-08-21T05:25:52;10.57;;;6.03;;
2972;SDS011;1496;51.404;7.232;2022-08-21T05:28:18;9.10;;;5.90;;
2972;SDS011;1496;51.404;7.232;2022-08-21T05:30:44;7.50;;;6.00;;
2972;SDS011;1496;51.404;7.232;2022-08-21T05:33:10;10.30;;;6.03;;
2972;SDS011;1496;51.404;7.232;2022-08-21T05:35:36;12.23;;;6.97;;
2972;SDS011;1496;51.404;7.232;2022-08-21T05:38:02;11.90;;;7.77;;
2972;SDS011;1496;51.404;7.232;2022-08-21T05:40:29;6.73;;;5.73;;
2972;SDS011;1496;51.404;7.232;2022-08-21T05:42:54;7.80;;;7.00;;
2972;SDS011;1496;51.404;7.232;2022-08-21T05:45:21;9.90;;;6.50;;
2972;SDS011;1496;51.404;7.232;2022-08-21T05:47:48;14.03;;;7.23;;
2972;SDS011;1496;51.404;7.232;2022-08-21T05:50:13;10.80;;;6.53;;
2972;SDS011;1496;51.404;7.232;2022-08-21T05:52:39;10.67;;;5.53;;
2972;SDS011;1496;51.404;7.232;2022-08-21T05:55:05;8.47;;;6.57;;
2972;SDS011;1496;51.404;7.232;2022-08-21T05:57:30;8.83;;;5.70;;
2972;SDS011;1496;51.404;7.232;2022-08-21T05:59:56;7.13;;;6.37;;
2972;SDS011;1496;51.404;7.232;2022-08-21T06:02:22;10.70;;;7.20;;
2972;SDS011;1496;51.404;7.232;2022-08-21T06:04:48;12.10;;;7.20;;
2972;SDS011;1496;51.404;7.232;2022-08-21T06:07:14;11.93;;;6.53;;
2972;SDS011;1496;51.404;7.232;2022-08-21T06:09:40;10.67;;;7.10;;
2972;SDS011;1496;51.404;7.232;2022-08-21T06:12:06;12.13;;;7.70;;
2972;SDS011;1496;51.404;7.232;2022-08-21T06:14:34;11.10;;;7.13;;
2972;SDS011;1496;51.404;7.232;2022-08-21T06:17:06;13.90;;;7.27;;
2972;SDS011;1496;51.404;7.232;2022-08-21T06:19:34;13.47;;;7.70;;
2972;SDS011;1496;51.404;7.232;2022-08-21T06:22:00;14.77;;;8.30;;
2972;SDS011;1496;51.404;7.232;2022-08-21T06:24:26;11.97;;;8.37;;
2972;SDS011;1496;51.404;7.232;2022-08-21T06:26:52;12.13;;;7.27;;
2972;SDS011;1496;51.404;7.232;2022-08-21T06:29:18;12.70;;;9.80;;
2972;SDS011;1496;51.404;7.232;2022-08-21T06:31:45;18.20;;;10.03;;
2972;SDS011;1496;51.404;7.232;2022-08-21T06:34:16;18.70;;;10.33;;
2972;SDS011;1496;51.404;7.232;2022-08-21T06:36:43;12.37;;;9.60;;
2972;SDS011;1496;51.404;7.232;2022-08-21T06:39:08;14.97;;;11.07;;
2972;SDS011;1496;51.404;7.232;2022-08-21T06:41:34;14.23;;;10.73;;
2972;SDS011;1496;51.404;7.232;2022-08-21T06:44:00;17.80;;;11.57;;
2972;SDS011;1496;51.404;7.232;2022-08-21T06:46:27;19.87;;;10.60;;
2972;SDS011;1496;51.404;7.232;2022-08-21T06:48:54;15.20;;;11.30;;
2972;SDS011;1496;51.404;7.232;2022-08-21T06:51:20;16.27;;;10.77;;
2972;SDS011;1496;51.404;7.232;2022-08-21T06:53:46;17.93;;;12.90;;
2972;SDS011;1496;51.404;7.232;2022-08-21T06:56:12;21.13;;;11.20;;
2972;SDS011;1496;51.404;7.232;2022-08-21T06:58:38;18.50;;;10.23;;
2972;SDS011;1496;51.404;7.232;2022-08-21T07:01:04;20.73;;;11.57;;
2972;SDS011;1496;51.404;7.232;2022-08-21T07:03:34;20.90;;;9.97;;
2972;SDS011;1496;51.404;7.232;2022-08-21T07:06:02;23.77;;;10.57;;
2972;SDS011;1496;51.404;7.232;2022-08-21T07:08:32;15.53;;;10.07;;
2972;SDS011;1496;51.404;7.232;2022-08-21T07:10:59;16.83;;;10.70;;
2972;SDS011;1496;51.404;7.232;2022-08-21T07:13:28;16.23;;;9.20;;
2972;SDS011;1496;51.404;7.232;2022-08-21T07:15:54;16.40;;;9.70;;
2972;SDS011;1496;51.404;7.232;2022-08-21T07:18:20;20.70;;;9.83;;
2972;SDS011;1496;51.404;7.232;2022-08-21T07:20:46;13.80;;;9.17;;
2972;SDS011;1496;51.404;7.232;2022-08-21T07:23:23;14.47;;;10.47;;
2972;SDS011;1496;51.404;7.232;2022-08-21T07:25:52;14.10;;;9.20;;
2972;SDS011;1496;51.404;7.232;2022-08-21T07:28:18;18.20;;;10.23;;
2972;SDS011;1496;51.404;7.232;2022-08-21T07:30:44;14.50;;;10.40;;
2972;SDS011;1496;51.404;7.232;2022-08-21T07:33:11;16.13;;;11.27;;
2972;SDS011;1496;51.404;7.232;2022-08-21T07:35:36;20.40;;;10.27;;
2972;SDS011;1496;51.404;7.232;2022-08-21T07:38:02;13.97;;;9.80;;
2972;SDS011;1496;51.404;7.232;2022-08-21T07:40:29;16.50;;;8.70;;
2972;SDS011;1496;51.404;7.232;2022-08-21T07:42:54;13.23;;;8.80;;
2972;SDS011;1496;51.404;7.232;2022-08-21T07:45:20;18.63;;;8.80;;
2972;SDS011;1496;51.404;7.232;2022-08-21T07:47:48;18.20;;;9.37;;
2972;SDS011;1496;51.404;7.232;2022-08-21T07:50:14;11.93;;;7.67;;
2972;SDS011;1496;51.404;7.232;2022-08-21T07:52:40;13.43;;;8.00;;
2972;SDS011;1496;51.404;7.232;2022-08-21T07:55:07;12.87;;;6.57;;
2972;SDS011;1496;51.404;7.232;2022-08-21T07:57:37;11.17;;;6.67;;
2972;SDS011;1496;51.404;7.232;2022-08-21T08:00:04;8.80;;;6.10;;
2972;SDS011;1496;51.404;7.232;2022-08-21T08:02:37;11.80;;;6.60;;
2972;SDS011;1496;51.404;7.232;2022-08-21T08:05:04;7.77;;;4.53;;
2972;SDS011;1496;51.404;7.232;2022-08-21T08:07:31;11.97;;;4.70;;
2972;SDS011;1496;51.404;7.232;2022-08-21T08:09:57;7.20;;;5.40;;
2972;SDS011;1496;51.404;7.232;2022-08-21T08:12:23;11.60;;;4.83;;
2972;SDS011;1496;51.404;7.232;2022-08-21T08:14:55;9.33;;;5.20;;
2972;SDS011;1496;51.404;7.232;2022-08-21T08:17:24;7.73;;;3.63;;
2972;SDS011;1496;51.404;7.232;2022-08-21T08:19:51;11.57;;;3.90;;
2972;SDS011;1496;51.404;7.232;2022-08-21T08:22:17;8.03;;;3.53;;
2972;SDS011;1496;51.404;7.232;2022-08-21T08:24:48;8.20;;;3.90;;
2972;SDS011;1496;51.404;7.232;2022-08-21T08:27:17;10.30;;;4.27;;
2972;SDS011;1496;51.404;7.232;2022-08-21T08:29:47;7.50;;;2.50;;
2972;SDS011;1496;51.404;7.232;2022-08-21T08:32:16;9.33;;;3.27;;
2972;SDS011;1496;51.404;7.232;2022-08-21T08:34:49;8.27;;;3.90;;
2972;SDS011;1496;51.404;7.232;2022-08-21T08:37:22;7.10;;;3.33;;
2972;SDS011;1496;51.404;7.232;2022-08-21T08:39:48;9.43;;;3.30;;
2972;SDS011;1496;51.404;7.232;2022-08-21T08:44:55;5.17;;;2.60;;
2972;SDS011;1496;51.404;7.232;2022-08-21T08:47:31;6.93;;;3.17;;
2972;SDS011;1496;51.404;7.232;2022-08-21T08:52:34;10.50;;;3.60;;
2972;SDS011;1496;51.404;7.232;2022-08-21T08:55:06;6.10;;;2.93;;
2972;SDS011;1496;51.404;7.232;2022-08-21T08:57:39;7.10;;;3.27;;
2972;SDS011;1496;51.404;7.232;2022-08-21T09:00:13;8.67;;;2.70;;
2972;SDS011;1496;51.404;7.232;2022-08-21T09:02:41;6.00;;;3.13;;
2972;SDS011;1496;51.404;7.232;2022-08-21T09:05:31;10.50;;;2.90;;
2972;SDS011;1496;51.404;7.232;2022-08-21T09:16:24;6.80;;;2.60;;
2972;SDS011;1496;51.404;7.232;2022-08-21T09:22:19;9.37;;;3.10;;
2972;SDS011;1496;51.404;7.232;2022-08-21T09:25:01;7.53;;;2.80;;
2972;SDS011;1496;51.404;7.232;2022-08-21T09:27:48;7.80;;;2.90;;
2972;SDS011;1496;51.404;7.232;2022-08-21T09:30:15;8.63;;;3.40;;
2972;SDS011;1496;51.404;7.232;2022-08-21T09:32:46;7.23;;;3.13;;
2972;SDS011;1496;51.404;7.232;2022-08-21T09:35:15;8.60;;;3.37;;
2972;SDS011;1496;51.404;7.232;2022-08-21T09:37:55;8.87;;;3.23;;
2972;SDS011;1496;51.404;7.232;2022-08-21T09:43:18;7.70;;;2.73;;
2972;SDS011;1496;51.404;7.232;2022-08-21T09:46:00;5.80;;;2.47;;
2972;SDS011;1496;51.404;7.232;2022-08-21T09:48:29;11.07;;;2.40;;
2972;SDS011;1496;51.404;7.232;2022-08-21T09:51:07;10.60;;;3.30;;
2972;SDS011;1496;51.404;7.232;2022-08-21T09:53:43;9.63;;;3.57;;
2972;SDS011;1496;51.404;7.232;2022-08-21T09:56:20;6.17;;;2.83;;
2972;SDS011;1496;51.404;7.232;2022-08-21T09:59:17;9.13;;;3.07;;
2972;SDS011;1496;51.404;7.232;2022-08-21T10:01:45;7.13;;;2.53;;
2972;SDS011;1496;51.404;7.232;2022-08-21T10:04:13;11.17;;;3.40;;
2972;SDS011;1496;51.404;7.232;2022-08-21T10:06:39;10.03;;;2.77;;
2972;SDS011;1496;51.404;7.232;2022-08-21T10:11:35;4.80;;;3.27;;
2972;SDS011;1496;51.404;7.232;2022-08-21T10:24:58;5.70;;;2.03;;
2972;SDS011;1496;51.404;7.232;2022-08-21T10:30:24;9.13;;;2.40;;
2972;SDS011;1496;51.404;7.232;2022-08-21T10:32:56;6.73;;;2.00;;
2972;SDS011;1496;51.404;7.232;2022-08-21T10:35:57;7.83;;;2.50;;
2972;SDS011;1496;51.404;7.232;2022-08-21T10:41:39;5.53;;;2.20;;
2972;SDS011;1496;51.404;7.232;2022-08-21T10:47:29;6.43;;;2.27;;
2972;SDS011;1496;51.404;7.232;2022-08-21T10:53:14;4.93;;;1.60;;
2972;SDS011;1496;51.404;7.232;2022-08-21T10:55:56;6.43;;;1.80;;
2972;SDS011;1496;51.404;7.232;2022-08-21T10:58:29;4.57;;;1.63;;
2972;SDS011;1496;51.404;7.232;2022-08-21T11:01:19;5.13;;;2.13;;
2972;SDS011;1496;51.404;7.232;2022-08-21T11:03:51;2.80;;;1.50;;
2972;SDS011;1496;51.404;7.232;2022-08-21T11:06:24;7.90;;;1.97;;
2972;SDS011;1496;51.404;7.232;2022-08-21T11:08:57;4.80;;;1.83;;
2972;SDS011;1496;51.404;7.232;2022-08-21T11:14:00;5.83;;;2.10;;
2972;SDS011;1496;51.404;7.232;2022-08-21T11:16:40;4.80;;;1.50;;
2972;SDS011;1496;51.404;7.232;2022-08-21T11:19:10;3.23;;;1.50;;
2972;SDS011;1496;51.404;7.232;2022-08-21T11:21:43;3.00;;;1.13;;
2972;SDS011;1496;51.404;7.232;2022-08-21T11:27:24;5.63;;;1.60;;
2972;SDS011;1496;51.404;7.232;2022-08-21T11:29:54;3.70;;;1.70;;
2972;SDS011;1496;51.404;7.232;2022-08-21T11:35:37;4.80;;;1.87;;
2972;SDS011;1496;51.404;7.232;2022-08-21T11:38:17;4.03;;;1.73;;
2972;SDS011;1496;51.404;7.232;2022-08-21T11:43:48;3.80;;;1.70;;
2972;SDS011;1496;51.404;7.232;2022-08-21T11:49:26;6.27;;;2.10;;
2972;SDS011;1496;51.404;7.232;2022-08-21T11:51:56;2.53;;;1.23;;
2972;SDS011;1496;51.404;7.232;2022-08-21T11:54:39;3.90;;;1.60;;
2972;SDS011;1496;51.404;7.232;2022-08-21T11:57:21;5.07;;;1.70;;
2972;SDS011;1496;51.404;7.232;2022-08-21T12:00:03;4.63;;;1.93;;
2972;SDS011;1496;51.404;7.232;2022-08-21T12:02:48;3.20;;;1.67;;
2972;SDS011;1496;51.404;7.232;2022-08-21T12:05:38;4.53;;;2.00;;
2972;SDS011;1496;51.404;7.232;2022-08-21T12:08:09;3.73;;;1.93;;
2972;SDS011;1496;51.404;7.232;2022-08-21T12:11:04;3.40;;;1.30;;
2972;SDS011;1496;51.404;7.232;2022-08-21T12:13:40;3.10;;;1.60;;
2972;SDS011;1496;51.404;7.232;2022-08-21T12:16:39;4.40;;;1.60;;
2972;SDS011;1496;51.404;7.232;2022-08-21T12:19:07;3.60;;;1.50;;
2972;SDS011;1496;51.404;7.232;2022-08-21T12:21:50;2.50;;;1.17;;
2972;SDS011;1496;51.404;7.232;2022-08-21T12:29:43;2.80;;;1.27;;
2972;SDS011;1496;51.404;7.232;2022-08-21T12:34:41;7.27;;;1.53;;
2972;SDS011;1496;51.404;7.232;2022-08-21T12:39:39;6.63;;;1.80;;
2972;SDS011;1496;51.404;7.232;2022-08-21T12:42:30;3.10;;;1.33;;
2972;SDS011;1496;51.404;7.232;2022-08-21T12:45:04;2.90;;;1.10;;
2972;SDS011;1496;51.404;7.232;2022-08-21T12:47:45;3.30;;;1.30;;
2972;SDS011;1496;51.404;7.232;2022-08-21T12:50:15;6.93;;;1.50;;
2972;SDS011;1496;51.404;7.232;2022-08-21T12:52:58;5.57;;;1.40;;
2972;SDS011;1496;51.404;7.232;2022-08-21T12:55:31;2.77;;;1.33;;
2972;SDS011;1496;51.404;7.232;2022-08-21T12:57:58;4.03;;;1.17;;
2972;SDS011;1496;51.404;7.232;2022-08-21T13:00:25;2.73;;;1.07;;
2972;SDS011;1496;51.404;7.232;2022-08-21T13:02:53;2.83;;;1.50;;
2972;SDS011;1496;51.404;7.232;2022-08-21T13:05:27;3.20;;;1.50;;
2972;SDS011;1496;51.404;7.232;2022-08-21T13:07:58;14.90;;;2.03;;
2972;SDS011;1496;51.404;7.232;2022-08-21T13:10:30;3.03;;;1.30;;
2972;SDS011;1496;51.404;7.232;2022-08-21T13:12:58;4.10;;;1.50;;
2972;SDS011;1496;51.404;7.232;2022-08-21T13:15:28;5.00;;;1.60;;
2972;SDS011;1496;51.404;7.232;2022-08-21T13:17:56;4.07;;;1.23;;
2972;SDS011;1496;51.404;7.232;2022-08-21T13:20:37;3.63;;;1.40;;
2972;SDS011;1496;51.404;7.232;2022-08-21T13:23:07;3.70;;;1.20;;
2972;SDS011;1496;51.404;7.232;2022-08-21T13:25:47;2.20;;;1.13;;
2972;SDS011;1496;51.404;7.232;2022-08-21T13:28:13;3.43;;;1.30;;
2972;SDS011;1496;51.404;7.232;2022-08-21T13:30:41;5.60;;;1.50;;
2972;SDS011;1496;51.404;7.232;2022-08-21T13:33:09;3.50;;;1.30;;
2972;SDS011;1496;51.404;7.232;2022-08-21T13:35:48;6.03;;;1.70;;
2972;SDS011;1496;51.404;7.232;2022-08-21T13:38:15;5.47;;;1.47;;
2972;SDS011;1496;51.404;7.232;2022-08-21T13:40:46;6.57;;;1.90;;
2972;SDS011;1496;51.404;7.232;2022-08-21T13:43:17;3.60;;;1.47;;
2972;SDS011;1496;51.404;7.232;2022-08-21T13:45:48;3.70;;;1.13;;
2972;SDS011;1496;51.404;7.232;2022-08-21T13:48:17;2.70;;;1.30;;
2972;SDS011;1496;51.404;7.232;2022-08-21T13:50:44;3.20;;;1.07;;
2972;SDS011;1496;51.404;7.232;2022-08-21T13:53:28;2.90;;;1.20;;
2972;SDS011;1496;51.404;7.232;2022-08-21T13:55:56;3.93;;;1.80;;
2972;SDS011;1496;51.404;7.232;2022-08-21T13:58:45;5.43;;;1.43;;
2972;SDS011;1496;51.404;7.232;2022-08-21T14:01:50;2.33;;;1.17;;
2972;SDS011;1496;51.404;7.232;2022-08-21T14:04:26;3.10;;;1.30;;
2972;SDS011;1496;51.404;7.232;2022-08-21T14:06:57;2.47;;;1.10;;
2972;SDS011;1496;51.404;7.232;2022-08-21T14:11:57;5.73;;;1.30;;
2972;SDS011;1496;51.404;7.232;2022-08-21T14:14:27;4.10;;;1.00;;
2972;SDS011;1496;51.404;7.232;2022-08-21T14:16:57;4.87;;;1.57;;
2972;SDS011;1496;51.404;7.232;2022-08-21T14:19:41;3.07;;;1.60;;
2972;SDS011;1496;51.404;7.232;2022-08-21T14:22:21;2.37;;;1.10;;
2972;SDS011;1496;51.404;7.232;2022-08-21T14:27:50;3.57;;;1.17;;
2972;SDS011;1496;51.404;7.232;2022-08-21T14:30:33;2.33;;;1.10;;
2972;SDS011;1496;51.404;7.232;2022-08-21T14:33:01;3.03;;;1.00;;
2972;SDS011;1496;51.404;7.232;2022-08-21T14:35:29;2.43;;;1.30;;
2972;SDS011;1496;51.404;7.232;2022-08-21T14:37:54;2.80;;;0.90;;
2972;SDS011;1496;51.404;7.232;2022-08-21T14:40:22;1.60;;;1.00;;
2972;SDS011;1496;51.404;7.232;2022-08-21T14:42:49;3.07;;;1.13;;
2972;SDS011;1496;51.404;7.232;2022-08-21T14:45:16;2.93;;;1.23;;
2972;SDS011;1496;51.404;7.232;2022-08-21T14:47:47;3.77;;;1.07;;
2972;SDS011;1496;51.404;7.232;2022-08-21T14:50:12;2.13;;;1.00;;
2972;SDS011;1496;51.404;7.232;2022-08-21T14:52:39;4.40;;;1.30;;
2972;SDS011;1496;51.404;7.232;2022-08-21T14:55:05;3.40;;;1.17;;
2972;SDS011;1496;51.404;7.232;2022-08-21T14:57:33;2.87;;;1.17;;
2972;SDS011;1496;51.404;7.232;2022-08-21T14:59:59;2.07;;;1.10;;
2972;SDS011;1496;51.404;7.232;2022-08-21T15:02:26;2.67;;;1.40;;
2972;SDS011;1496;51.404;7.232;2022-08-21T15:04:51;5.17;;;1.43;;
2972;SDS011;1496;51.404;7.232;2022-08-21T15:07:17;3.40;;;1.20;;
2972;SDS011;1496;51.404;7.232;2022-08-21T15:09:43;2.97;;;1.47;;
2972;SDS011;1496;51.404;7.232;2022-08-21T15:12:08;2.53;;;1.20;;
2972;SDS011;1496;51.404;7.232;2022-08-21T15:14:36;1.80;;;1.00;;
2972;SDS011;1496;51.404;7.232;2022-08-21T15:17:08;1.77;;;1.00;;
2972;SDS011;1496;51.404;7.232;2022-08-21T15:19:35;3.60;;;1.50;;
2972;SDS011;1496;51.404;7.232;2022-08-21T15:22:01;6.10;;;1.20;;
2972;SDS011;1496;51.404;7.232;2022-08-21T15:24:29;3.73;;;1.10;;
2972;SDS011;1496;51.404;7.232;2022-08-21T15:26:55;2.20;;;1.17;;
2972;SDS011;1496;51.404;7.232;2022-08-21T15:29:24;2.97;;;1.87;;
2972;SDS011;1496;51.404;7.232;2022-08-21T15:32:00;3.67;;;1.00;;
2972;SDS011;1496;51.404;7.232;2022-08-21T15:34:28;4.07;;;1.77;;
2972;SDS011;1496;51.404;7.232;2022-08-21T15:36:56;5.10;;;1.20;;
2972;SDS011;1496;51.404;7.232;2022-08-21T15:39:25;4.23;;;1.40;;
2972;SDS011;1496;51.404;7.232;2022-08-21T15:41:51;2.43;;;1.40;;
2972;SDS011;1496;51.404;7.232;2022-08-21T15:44:17;7.13;;;1.67;;
2972;SDS011;1496;51.404;7.232;2022-08-21T15:46:44;3.77;;;1.20;;
2972;SDS011;1496;51.404;7.232;2022-08-21T15:49:11;3.00;;;1.30;;
2972;SDS011;1496;51.404;7.232;2022-08-21T15:51:37;3.67;;;1.00;;
2972;SDS011;1496;51.404;7.232;2022-08-21T15:54:06;3.50;;;1.20;;
2972;SDS011;1496;51.404;7.232;2022-08-21T15:56:36;3.03;;;1.60;;
2972;SDS011;1496;51.404;7.232;2022-08-21T15:59:08;2.40;;;1.27;;
2972;SDS011;1496;51.404;7.232;2022-08-21T16:01:40;4.03;;;1.43;;
2972;SDS011;1496;51.404;7.232;2022-08-21T16:04:06;2.00;;;1.10;;
2972;SDS011;1496;51.404;7.232;2022-08-21T16:06:36;2.57;;;1.30;;
2972;SDS011;1496;51.404;7.232;2022-08-21T16:09:04;3.63;;;1.33;;
2972;SDS011;1496;51.404;7.232;2022-08-21T16:11:30;2.53;;;1.30;;
2972;SDS011;1496;51.404;7.232;2022-08-21T16:13:57;5.80;;;1.87;;
2972;SDS011;1496;51.404;7.232;2022-08-21T16:16:23;6.27;;;1.50;;
2972;SDS011;1496;51.404;7.232;2022-08-21T16:18:50;3.50;;;1.20;;
2972;SDS011;1496;51.404;7.232;2022-08-21T16:21:17;3.10;;;1.30;;
2972;SDS011;1496;51.404;7.232;2022-08-21T16:23:45;3.20;;;1.47;;
2972;SDS011;1496;51.404;7.232;2022-08-21T16:26:12;3.00;;;1.40;;
2972;SDS011;1496;51.404;7.232;2022-08-21T16:28:39;3.87;;;1.33;;
2972;SDS011;1496;51.404;7.232;2022-08-21T16:31:07;3.47;;;1.50;;
2972;SDS011;1496;51.404;7.232;2022-08-21T16:33:35;2.30;;;1.00;;
2972;SDS011;1496;51.404;7.232;2022-08-21T16:36:09;2.30;;;1.30;;
2972;SDS011;1496;51.404;7.232;2022-08-21T16:38:36;4.70;;;1.07;;
2972;SDS011;1496;51.404;7.232;2022-08-21T16:41:04;2.57;;;1.30;;
2972;SDS011;1496;51.404;7.232;2022-08-21T16:43:31;3.90;;;1.30;;